createdAt,value
2022-12-31T00:02:19.758Z,13.10
2022-12-31T00:04:46.598Z,13.10
2022-12-31T00:07:13.399Z,13.00
2022-12-31T00:09:40.239Z,13.10
2022-12-31T00:12:07.200Z,13.10
2022-12-31T00:14:33.952Z,13.10
2022-12-31T00:17:00.746Z,13.10
2022-12-31T00:19:27.568Z,13.10
2022-12-31T00:21:54.399Z,13.10
2022-12-31T00:24:21.248Z,13.00
2022-12-31T00:26:47.994Z,13.00
2022-12-31T00:29:14.778Z,13.00
2022-12-31T00:31:41.546Z,13.00
2022-12-31T00:34:09.531Z,13.00
2022-12-31T00:36:38.394Z,13.00
2022-12-31T00:39:08.035Z,13.00
2022-12-31T00:41:34.908Z,13.00
2022-12-31T00:44:02.015Z,12.90
2022-12-31T00:46:29.106Z,12.90
2022-12-31T00:48:55.901Z,12.90
2022-12-31T00:51:24.590Z,12.80
2022-12-31T00:53:51.406Z,12.80
2022-12-31T00:56:21.344Z,12.70
2022-12-31T00:58:48.569Z,12.70
2022-12-31T01:01:21.835Z,12.70
2022-12-31T01:03:50.913Z,12.70
2022-12-31T01:06:18.508Z,12.70
2022-12-31T01:08:48.659Z,12.70
2022-12-31T01:11:19.594Z,12.70
2022-12-31T01:13:58.042Z,12.70
2022-12-31T01:16:38.676Z,12.70
2022-12-31T01:19:16.663Z,12.70
2022-12-31T01:21:44.809Z,12.70
2022-12-31T01:24:12.429Z,12.70
2022-12-31T01:26:39.742Z,12.70
2022-12-31T01:29:09.969Z,12.70
2022-12-31T01:31:38.003Z,12.80
2022-12-31T01:34:05.987Z,12.80
2022-12-31T01:36:34.640Z,12.80
2022-12-31T01:39:02.985Z,12.80
2022-12-31T01:41:33.507Z,12.90
2022-12-31T01:44:02.894Z,12.90
2022-12-31T01:46:41.044Z,12.90
2022-12-31T01:49:23.929Z,12.90
2022-12-31T01:52:06.397Z,13.00
2022-12-31T01:54:37.414Z,13.10
2022-12-31T01:57:05.248Z,13.00
2022-12-31T01:59:33.880Z,13.10
2022-12-31T02:02:01.513Z,13.10
2022-12-31T02:04:29.448Z,13.10
2022-12-31T02:07:05.110Z,13.10
2022-12-31T02:09:32.743Z,13.10
2022-12-31T02:11:59.633Z,13.10
2022-12-31T02:14:48.049Z,13.20
2022-12-31T02:17:37.711Z,13.30
2022-12-31T02:20:25.284Z,13.30
2022-12-31T02:23:22.850Z,13.30
2022-12-31T02:26:29.509Z,13.40
2022-12-31T02:29:11.034Z,13.40
2022-12-31T02:31:52.507Z,13.50
2022-12-31T02:34:32.556Z,13.50
2022-12-31T02:37:03.404Z,13.60
2022-12-31T02:39:31.200Z,13.70
2022-12-31T02:42:00.923Z,13.80
2022-12-31T02:44:34.072Z,13.80
2022-12-31T02:47:10.284Z,13.80
2022-12-31T02:49:49.194Z,13.90
2022-12-31T02:52:47.505Z,13.90
2022-12-31T02:55:32.031Z,14.00
2022-12-31T02:58:01.608Z,14.10
2022-12-31T03:00:51.084Z,14.10
2022-12-31T03:03:20.193Z,14.10
2022-12-31T03:05:49.812Z,14.10
2022-12-31T03:08:24.595Z,14.00
2022-12-31T03:10:51.817Z,14.10
2022-12-31T03:13:18.649Z,14.00
2022-12-31T03:15:48.116Z,14.00
2022-12-31T03:18:17.432Z,14.00
2022-12-31T03:21:05.987Z,14.00
2022-12-31T03:23:35.901Z,14.00
2022-12-31T03:26:10.120Z,14.10
2022-12-31T03:28:38.868Z,14.10
2022-12-31T03:31:05.977Z,14.10
2022-12-31T03:33:38.073Z,14.10
2022-12-31T03:36:15.399Z,14.10
2022-12-31T03:38:42.236Z,14.00
2022-12-31T03:41:11.021Z,14.00
2022-12-31T03:43:38.186Z,14.00
2022-12-31T03:46:05.158Z,14.00
2022-12-31T03:48:31.964Z,14.00
2022-12-31T03:50:58.725Z,14.00
2022-12-31T03:53:25.490Z,14.10
2022-12-31T03:55:53.341Z,14.10
2022-12-31T03:58:20.518Z,14.20
2022-12-31T04:00:47.361Z,14.20
2022-12-31T04:03:14.265Z,14.20
2022-12-31T04:05:41.123Z,14.30
2022-12-31T04:08:08.113Z,14.40
2022-12-31T04:10:34.894Z,14.40
2022-12-31T04:13:04.429Z,14.40
2022-12-31T04:15:31.545Z,14.40
2022-12-31T04:17:58.389Z,14.50
2022-12-31T04:20:25.332Z,14.50
2022-12-31T04:22:52.178Z,14.60
2022-12-31T04:25:19.059Z,14.70
2022-12-31T04:27:46.214Z,14.70
2022-12-31T04:30:13.519Z,14.80
2022-12-31T04:32:40.516Z,14.80
2022-12-31T04:35:08.219Z,14.90
2022-12-31T04:37:35.104Z,15.00
2022-12-31T04:40:06.230Z,15.00
2022-12-31T04:42:34.840Z,15.00
2022-12-31T04:45:01.787Z,15.00
2022-12-31T04:47:28.763Z,15.00
2022-12-31T04:49:55.558Z,14.90
2022-12-31T04:52:22.579Z,14.90
2022-12-31T04:54:49.617Z,14.80
2022-12-31T04:57:16.448Z,14.80
2022-12-31T04:59:43.251Z,14.80
2022-12-31T05:02:10.214Z,14.80
2022-12-31T05:04:37.260Z,14.90
2022-12-31T05:07:04.107Z,14.80
2022-12-31T05:09:31.006Z,14.80
2022-12-31T05:11:58.088Z,14.80
2022-12-31T05:14:25.067Z,14.90
2022-12-31T05:16:52.150Z,15.00
2022-12-31T05:19:19.008Z,15.00
2022-12-31T05:22:05.774Z,15.10
2022-12-31T05:24:32.801Z,15.20
2022-12-31T05:26:59.603Z,15.30
2022-12-31T05:29:26.694Z,15.30
2022-12-31T05:31:53.646Z,15.40
2022-12-31T05:34:20.554Z,15.40
2022-12-31T05:36:47.336Z,15.40
2022-12-31T05:39:14.167Z,15.50
2022-12-31T05:41:40.988Z,15.50
2022-12-31T05:44:07.790Z,15.60
2022-12-31T05:46:34.585Z,15.70
2022-12-31T05:49:01.384Z,15.80
2022-12-31T05:51:28.188Z,15.80
2022-12-31T05:53:55.032Z,15.90
2022-12-31T05:56:21.904Z,16.00
2022-12-31T05:58:48.707Z,16.00
2022-12-31T06:01:15.512Z,16.00
2022-12-31T06:03:42.376Z,16.00
2022-12-31T06:06:09.246Z,16.00
2022-12-31T06:08:36.028Z,16.10
2022-12-31T06:11:02.969Z,16.20
2022-12-31T06:13:29.989Z,16.20
2022-12-31T06:15:56.859Z,16.30
2022-12-31T06:18:23.710Z,16.30
2022-12-31T06:20:50.479Z,16.30
2022-12-31T06:23:17.255Z,16.30
2022-12-31T06:25:44.050Z,16.30
2022-12-31T06:28:16.135Z,16.30
2022-12-31T06:30:47.110Z,16.30
2022-12-31T06:33:13.892Z,16.30
2022-12-31T06:35:40.670Z,16.40
2022-12-31T06:38:07.623Z,16.40
2022-12-31T06:40:37.496Z,16.40
2022-12-31T06:43:05.831Z,16.50
2022-12-31T06:45:32.665Z,16.50
2022-12-31T06:47:59.447Z,16.50
2022-12-31T06:50:26.288Z,16.50
2022-12-31T06:52:53.841Z,16.60
2022-12-31T06:55:21.010Z,16.50
2022-12-31T06:57:48.187Z,16.50
2022-12-31T07:00:15.581Z,16.60
2022-12-31T07:03:03.449Z,16.60
2022-12-31T07:05:56.880Z,16.60
2022-12-31T07:08:35.551Z,16.50
2022-12-31T07:11:26.624Z,16.50
2022-12-31T07:14:06.859Z,16.50
2022-12-31T07:16:46.670Z,16.50
2022-12-31T07:19:31.772Z,16.50
2022-12-31T07:21:59.544Z,16.60
2022-12-31T07:24:26.928Z,16.60
2022-12-31T07:26:56.715Z,16.60
2022-12-31T07:29:59.735Z,16.50
2022-12-31T07:32:50.385Z,16.50
2022-12-31T07:35:24.970Z,16.60
2022-12-31T07:38:05.498Z,16.60
2022-12-31T07:41:09.358Z,16.60
2022-12-31T07:43:48.294Z,16.70
2022-12-31T07:46:51.610Z,16.70
2022-12-31T07:49:19.303Z,16.70
2022-12-31T07:51:47.749Z,16.70
2022-12-31T07:54:14.609Z,16.80
2022-12-31T07:56:42.064Z,16.80
2022-12-31T07:59:24.487Z,16.80
2022-12-31T08:02:13.821Z,16.80
2022-12-31T08:05:04.779Z,16.80
2022-12-31T08:07:50.468Z,16.80
2022-12-31T08:10:27.162Z,16.80
2022-12-31T08:13:01.549Z,16.80
2022-12-31T08:15:30.658Z,16.80
2022-12-31T08:17:57.908Z,16.80
2022-12-31T08:20:26.150Z,16.80
2022-12-31T08:23:08.273Z,16.80
2022-12-31T08:25:40.650Z,16.80
2022-12-31T08:28:34.325Z,16.80
2022-12-31T08:31:15.757Z,16.80
2022-12-31T08:34:07.248Z,16.80
2022-12-31T08:36:40.059Z,16.90
2022-12-31T08:39:13.513Z,17.00
2022-12-31T08:41:47.645Z,17.00
2022-12-31T08:44:17.223Z,17.00
2022-12-31T08:46:57.418Z,17.00
2022-12-31T08:49:27.769Z,17.00
2022-12-31T08:51:54.944Z,17.00
2022-12-31T08:54:22.020Z,17.00
2022-12-31T08:57:21.095Z,17.10
2022-12-31T09:00:12.121Z,17.10
2022-12-31T09:03:00.012Z,17.20
2022-12-31T09:05:38.850Z,17.20
2022-12-31T09:08:23.205Z,17.20
2022-12-31T09:10:50.003Z,17.20
2022-12-31T09:13:44.583Z,17.20
2022-12-31T09:16:27.635Z,17.20
2022-12-31T09:18:54.483Z,17.20
2022-12-31T09:21:21.561Z,17.10
2022-12-31T09:23:48.561Z,17.10
2022-12-31T09:26:44.599Z,17.10
2022-12-31T09:29:37.502Z,17.10
2022-12-31T09:32:27.183Z,17.20
2022-12-31T09:34:58.384Z,17.20
2022-12-31T09:38:11.111Z,17.20
2022-12-31T09:41:23.651Z,17.30
2022-12-31T09:44:11.161Z,17.30
2022-12-31T09:46:57.864Z,17.30
2022-12-31T09:50:01.522Z,17.30
2022-12-31T09:52:47.101Z,17.40
2022-12-31T09:55:24.345Z,17.40
2022-12-31T09:58:15.208Z,17.40
2022-12-31T10:00:51.043Z,17.40
2022-12-31T10:03:36.494Z,17.40
2022-12-31T10:06:28.452Z,17.30
2022-12-31T10:09:28.284Z,17.40
2022-12-31T10:12:06.092Z,17.40
2022-12-31T10:15:30.423Z,17.40
2022-12-31T10:18:29.042Z,17.40
2022-12-31T10:21:10.875Z,17.40
2022-12-31T10:23:52.231Z,17.40
2022-12-31T10:26:49.821Z,17.50
2022-12-31T10:29:34.162Z,17.50
2022-12-31T10:32:12.025Z,17.50
2022-12-31T10:35:01.539Z,17.50
2022-12-31T10:37:42.375Z,17.50
2022-12-31T10:40:09.119Z,17.50
2022-12-31T10:43:12.912Z,17.60
2022-12-31T10:45:58.081Z,17.60
2022-12-31T10:48:33.809Z,17.60
2022-12-31T10:51:21.734Z,17.70
2022-12-31T10:54:00.444Z,17.70
2022-12-31T10:56:27.211Z,17.70
2022-12-31T10:59:13.645Z,17.70
2022-12-31T11:01:49.730Z,17.70
2022-12-31T11:04:38.999Z,17.70
2022-12-31T11:07:24.713Z,17.70
2022-12-31T11:10:06.107Z,17.70
2022-12-31T11:13:20.239Z,17.60
2022-12-31T11:16:11.115Z,17.70
2022-12-31T11:19:04.446Z,17.70
2022-12-31T11:22:09.893Z,17.70
2022-12-31T11:24:45.135Z,17.70
2022-12-31T11:27:26.996Z,17.80
2022-12-31T11:30:26.357Z,17.80
2022-12-31T11:33:17.180Z,17.80
2022-12-31T11:35:55.339Z,17.90
2022-12-31T11:38:50.818Z,17.90
2022-12-31T11:41:46.180Z,17.90
2022-12-31T11:44:18.997Z,17.90
2022-12-31T11:46:57.819Z,17.90
2022-12-31T11:49:52.081Z,17.80
2022-12-31T11:52:36.711Z,17.80
2022-12-31T11:55:34.665Z,17.80
2022-12-31T11:58:30.962Z,17.80
2022-12-31T12:01:05.388Z,17.70
2022-12-31T12:03:33.183Z,17.80
2022-12-31T12:06:00.081Z,17.80
2022-12-31T12:08:31.670Z,17.70
2022-12-31T12:11:07.338Z,17.70
2022-12-31T12:13:34.206Z,17.70
2022-12-31T12:16:06.125Z,17.70
2022-12-31T12:19:00.821Z,17.70
2022-12-31T12:21:28.762Z,17.70
2022-12-31T12:24:02.646Z,17.70
2022-12-31T12:26:36.913Z,17.70
2022-12-31T12:29:14.379Z,17.60
2022-12-31T12:31:41.748Z,17.60
2022-12-31T12:34:27.863Z,17.50
2022-12-31T12:36:54.948Z,17.40
2022-12-31T12:39:26.396Z,17.30
2022-12-31T12:42:10.965Z,17.30
2022-12-31T12:44:38.001Z,17.20
2022-12-31T12:47:08.203Z,17.10
2022-12-31T12:49:45.458Z,17.10
2022-12-31T12:52:26.482Z,17.00
2022-12-31T12:55:08.602Z,16.90
2022-12-31T12:57:58.418Z,16.70
2022-12-31T13:00:29.694Z,16.60
2022-12-31T13:03:15.548Z,16.40
2022-12-31T13:05:47.922Z,16.40
2022-12-31T13:08:33.425Z,16.40
2022-12-31T13:11:18.155Z,16.30
2022-12-31T13:14:01.185Z,16.30
2022-12-31T13:16:27.933Z,16.30
2022-12-31T13:19:07.501Z,16.30
2022-12-31T13:21:49.617Z,16.30
2022-12-31T13:24:42.856Z,16.30
2022-12-31T13:27:22.915Z,16.30
2022-12-31T13:29:50.484Z,16.30
2022-12-31T13:32:23.715Z,16.20
2022-12-31T13:34:56.270Z,16.20
2022-12-31T13:37:31.947Z,16.20
2022-12-31T13:40:30.378Z,16.30
2022-12-31T13:43:13.733Z,16.20
2022-12-31T13:45:45.210Z,16.20
2022-12-31T13:48:19.923Z,16.10
2022-12-31T13:51:05.772Z,16.10
2022-12-31T13:53:39.792Z,16.20
2022-12-31T13:56:14.592Z,16.20
2022-12-31T13:58:53.017Z,16.30
2022-12-31T14:01:33.877Z,16.30
2022-12-31T14:04:18.713Z,16.40
2022-12-31T14:06:57.382Z,16.40
2022-12-31T14:09:27.846Z,16.50
2022-12-31T14:12:15.928Z,16.50
2022-12-31T14:14:49.381Z,16.50
2022-12-31T14:17:31.038Z,16.60
2022-12-31T14:20:12.687Z,16.60
2022-12-31T14:22:45.457Z,16.60
2022-12-31T14:25:23.673Z,16.60
2022-12-31T14:27:53.943Z,16.60
2022-12-31T14:30:23.869Z,16.50
2022-12-31T14:33:19.986Z,16.60
2022-12-31T14:36:10.377Z,16.50
2022-12-31T14:39:13.673Z,16.50
2022-12-31T14:41:46.990Z,16.50
2022-12-31T14:44:34.413Z,16.50
2022-12-31T14:47:36.797Z,16.40
2022-12-31T14:50:13.693Z,16.30
2022-12-31T14:52:55.874Z,16.30
2022-12-31T14:55:26.300Z,16.30
2022-12-31T15:00:51.365Z,16.20
2022-12-31T15:03:18.169Z,16.10
2022-12-31T15:06:03.614Z,16.00
2022-12-31T15:08:39.251Z,16.00
2022-12-31T15:11:33.217Z,15.90
2022-12-31T15:14:37.455Z,15.90
2022-12-31T15:17:04.759Z,15.90
2022-12-31T15:19:55.588Z,15.90
2022-12-31T15:22:40.245Z,15.80
2022-12-31T15:25:38.651Z,15.80
2022-12-31T15:28:24.262Z,15.80
2022-12-31T15:30:52.929Z,15.80
2022-12-31T15:33:39.100Z,15.70
2022-12-31T15:36:15.940Z,15.70
2022-12-31T15:38:43.647Z,15.70
2022-12-31T15:41:36.625Z,15.70
2022-12-31T15:44:12.134Z,15.70
2022-12-31T15:46:41.868Z,15.70
2022-12-31T15:49:18.110Z,15.70
2022-12-31T15:51:49.900Z,15.60
2022-12-31T15:54:35.719Z,15.60
2022-12-31T15:57:09.031Z,15.60
2022-12-31T15:59:38.083Z,15.70
2022-12-31T16:02:17.715Z,15.70
2022-12-31T16:04:44.790Z,15.70
2022-12-31T16:07:12.438Z,15.70
2022-12-31T16:09:39.900Z,15.70
2022-12-31T16:12:15.555Z,15.70
2022-12-31T16:14:50.165Z,15.70
2022-12-31T16:17:35.102Z,15.70
2022-12-31T16:20:20.838Z,15.70
2022-12-31T16:22:52.615Z,15.70
2022-12-31T16:25:36.542Z,15.80
2022-12-31T16:28:04.028Z,15.80
2022-12-31T16:30:33.721Z,15.80
2022-12-31T16:33:04.950Z,15.80
2022-12-31T16:35:34.132Z,15.70
2022-12-31T16:38:03.581Z,15.70
2022-12-31T16:40:30.521Z,15.70
2022-12-31T16:42:57.335Z,15.70
2022-12-31T16:45:29.797Z,15.70
2022-12-31T16:47:58.846Z,15.70
2022-12-31T16:50:26.064Z,15.70
2022-12-31T16:53:02.557Z,15.70
2022-12-31T16:55:30.875Z,15.70
2022-12-31T16:58:22.228Z,15.60
2022-12-31T17:00:50.682Z,15.60
2022-12-31T17:03:23.898Z,15.60
2022-12-31T17:05:56.851Z,15.60
2022-12-31T17:08:27.493Z,15.60
2022-12-31T17:10:56.292Z,15.60
2022-12-31T17:13:29.807Z,15.60
2022-12-31T17:15:58.568Z,15.60
2022-12-31T17:18:30.402Z,15.60
2022-12-31T17:21:06.246Z,15.70
2022-12-31T17:23:35.176Z,15.70
2022-12-31T17:26:13.724Z,15.60
2022-12-31T17:28:46.286Z,15.60
2022-12-31T17:31:39.784Z,15.60
2022-12-31T17:34:12.360Z,15.50
2022-12-31T17:36:41.848Z,15.60
2022-12-31T17:39:22.395Z,15.50
2022-12-31T17:41:52.449Z,15.60
2022-12-31T17:44:22.302Z,15.60
2022-12-31T17:46:50.533Z,15.50
2022-12-31T17:49:21.676Z,15.60
2022-12-31T17:51:48.505Z,15.60
2022-12-31T17:54:16.793Z,15.60
2022-12-31T17:56:44.696Z,15.60
2022-12-31T17:59:18.417Z,15.60
2022-12-31T18:01:45.419Z,15.60
2022-12-31T18:04:17.610Z,15.60
2022-12-31T18:06:44.737Z,15.60
2022-12-31T18:09:11.588Z,15.60
2022-12-31T18:11:40.039Z,15.60
2022-12-31T18:14:07.167Z,15.60
2022-12-31T18:16:34.140Z,15.60
2022-12-31T18:19:02.393Z,15.60
2022-12-31T18:21:34.619Z,15.60
2022-12-31T18:26:32.542Z,15.70
2022-12-31T18:29:02.153Z,15.60
2022-12-31T18:31:30.780Z,15.60
2022-12-31T18:33:58.779Z,15.50
2022-12-31T18:36:27.424Z,15.60
2022-12-31T18:38:54.274Z,15.60
2022-12-31T18:41:27.560Z,15.60
2022-12-31T18:43:55.196Z,15.60
2022-12-31T18:46:23.718Z,15.50
2022-12-31T18:48:50.519Z,15.50
2022-12-31T18:51:29.296Z,15.50
2022-12-31T18:53:58.473Z,15.60
2022-12-31T18:56:25.282Z,15.60
2022-12-31T18:58:52.126Z,15.60
2022-12-31T19:01:35.303Z,15.60
2022-12-31T19:04:04.745Z,15.50
2022-12-31T19:06:31.508Z,15.60
2022-12-31T19:09:00.849Z,15.60
2022-12-31T19:11:28.256Z,15.60
2022-12-31T19:13:55.085Z,15.60
2022-12-31T19:16:21.968Z,15.60
2022-12-31T19:18:49.446Z,15.60
2022-12-31T19:21:19.238Z,15.60
2022-12-31T19:23:46.378Z,15.60
2022-12-31T19:26:18.585Z,15.60
2022-12-31T19:28:46.545Z,15.60
2022-12-31T19:31:13.777Z,15.60
2022-12-31T19:33:40.896Z,15.70
2022-12-31T19:36:15.038Z,15.70
2022-12-31T19:38:41.969Z,15.70
2022-12-31T19:41:17.609Z,15.60
2022-12-31T19:43:45.146Z,15.60
2022-12-31T19:46:14.173Z,15.60
2022-12-31T19:48:41.191Z,15.60
2022-12-31T19:51:10.359Z,15.60
2022-12-31T19:53:37.499Z,15.60
2022-12-31T19:56:05.363Z,15.60
2022-12-31T19:58:32.200Z,15.60
2022-12-31T20:01:02.868Z,15.60
2022-12-31T20:03:33.947Z,15.60
2022-12-31T20:06:07.367Z,15.50
2022-12-31T20:08:35.374Z,15.50
2022-12-31T20:11:14.025Z,15.50
2022-12-31T20:13:41.470Z,15.60
2022-12-31T20:16:08.897Z,15.60
2022-12-31T20:18:39.943Z,15.50
2022-12-31T20:21:14.863Z,15.60
2022-12-31T20:23:41.769Z,15.60
2022-12-31T20:26:09.600Z,15.50
2022-12-31T20:28:37.245Z,15.50
2022-12-31T20:31:26.139Z,15.50
2022-12-31T20:33:54.139Z,15.50
2022-12-31T20:36:21.830Z,15.60
2022-12-31T20:38:48.951Z,15.60
2022-12-31T20:41:18.858Z,15.60
2022-12-31T20:43:45.990Z,15.60
2022-12-31T20:46:16.398Z,15.60
2022-12-31T20:48:44.577Z,15.60
2022-12-31T20:51:12.908Z,15.60
2022-12-31T20:53:40.267Z,15.60
2022-12-31T20:56:07.920Z,15.60
2022-12-31T20:58:34.844Z,15.60
2022-12-31T21:01:04.944Z,15.60
2022-12-31T21:06:19.330Z,15.60
2022-12-31T21:08:46.550Z,15.60
2022-12-31T21:11:32.895Z,15.60
2022-12-31T21:14:00.675Z,15.60
2022-12-31T21:16:28.125Z,15.60
2022-12-31T21:18:55.385Z,15.70
2022-12-31T21:21:22.599Z,15.70
2022-12-31T21:23:49.706Z,15.80
2022-12-31T21:26:16.800Z,15.80
2022-12-31T21:28:43.637Z,15.70
2022-12-31T21:31:12.389Z,15.70
2022-12-31T21:33:39.280Z,15.80
2022-12-31T21:36:06.267Z,15.80
2022-12-31T21:38:36.353Z,15.80
2022-12-31T21:41:05.029Z,15.80
2022-12-31T21:43:31.876Z,15.80
2022-12-31T21:46:04.189Z,15.80
2022-12-31T21:48:31.388Z,15.80
2022-12-31T21:51:10.136Z,15.70
2022-12-31T21:53:37.596Z,15.70
2022-12-31T21:56:13.477Z,15.80
2022-12-31T21:58:43.502Z,15.80
2022-12-31T22:01:40.570Z,15.80
2022-12-31T22:04:22.143Z,15.80
2022-12-31T22:06:54.805Z,15.80
2022-12-31T22:09:21.603Z,15.80
2022-12-31T22:11:48.440Z,15.70
2022-12-31T22:14:15.238Z,15.70
2022-12-31T22:16:42.109Z,15.70
2022-12-31T22:19:08.970Z,15.60
2022-12-31T22:21:36.010Z,15.60
2022-12-31T22:24:03.078Z,15.70
2022-12-31T22:26:29.875Z,15.70
2022-12-31T22:28:59.956Z,15.60
2022-12-31T22:31:32.371Z,15.70
2022-12-31T22:33:59.656Z,15.70
2022-12-31T22:36:26.511Z,15.70
2022-12-31T22:38:57.914Z,15.70
2022-12-31T22:41:26.101Z,15.70
2022-12-31T22:44:02.281Z,15.80
2022-12-31T22:46:30.467Z,15.70
2022-12-31T22:48:59.134Z,15.70
2022-12-31T22:51:54.996Z,15.70
2022-12-31T22:54:13.364Z,15.70
2022-12-31T22:56:40.086Z,15.70
2022-12-31T22:59:06.789Z,15.70
2022-12-31T23:01:34.650Z,15.80
2022-12-31T23:04:01.550Z,15.70
2022-12-31T23:06:28.964Z,15.70
2022-12-31T23:09:14.659Z,15.70
2022-12-31T23:11:43.127Z,15.80
2022-12-31T23:14:33.312Z,15.80
2022-12-31T23:17:31.248Z,15.80
2022-12-31T23:20:18.307Z,15.80
2022-12-31T23:23:03.865Z,15.90
2022-12-31T23:25:31.789Z,15.90
2022-12-31T23:27:58.568Z,15.90
2022-12-31T23:30:25.321Z,15.90
2022-12-31T23:32:52.029Z,15.90
2022-12-31T23:35:18.965Z,15.90
2022-12-31T23:37:45.668Z,15.90
2022-12-31T23:40:20.626Z,15.90
2022-12-31T23:42:48.614Z,15.90
2022-12-31T23:45:15.450Z,15.90
2022-12-31T23:47:42.281Z,16.00
2022-12-31T23:50:09.057Z,16.00
2022-12-31T23:52:35.772Z,16.00
2022-12-31T23:55:03.572Z,16.00
2022-12-31T23:57:30.685Z,16.00
2022-12-31T23:59:57.399Z,16.10
